createdAt,value
2018-09-18T00:00:14.024Z,83.81
2018-09-18T00:01:14.494Z,83.13
2018-09-18T00:02:14.964Z,82.96
2018-09-18T00:03:15.437Z,83.03
2018-09-18T00:04:15.908Z,83.14
2018-09-18T00:05:16.379Z,83.13
2018-09-18T00:06:16.847Z,82.99
2018-09-18T00:07:17.319Z,83.23
2018-09-18T00:08:17.790Z,83.02
2018-09-18T00:09:18.261Z,83.37
2018-09-18T00:10:18.734Z,83.04
2018-09-18T00:11:19.202Z,83.66
2018-09-18T00:12:19.672Z,84.16
2018-09-18T00:13:20.143Z,84.56
2018-09-18T00:14:20.616Z,85.11
2018-09-18T00:15:21.095Z,85.35
2018-09-18T00:16:21.555Z,85.43
2018-09-18T00:17:22.025Z,85.68
2018-09-18T00:18:22.498Z,85.85
2018-09-18T00:19:22.970Z,86.01
2018-09-18T00:20:23.438Z,86.01
2018-09-18T00:21:23.908Z,85.83
2018-09-18T00:22:24.383Z,84.42
2018-09-18T00:23:24.852Z,83.24
2018-09-18T00:24:25.324Z,82.74
2018-09-18T00:25:25.797Z,77.12
2018-09-18T00:26:26.267Z,79.53
2018-09-18T00:27:26.738Z,81.04
2018-09-18T00:28:27.214Z,81.86
2018-09-18T00:29:27.682Z,81.69
2018-09-18T00:30:28.157Z,80.00
2018-09-18T00:31:28.630Z,80.96
2018-09-18T00:32:29.103Z,81.70
2018-09-18T00:33:29.576Z,81.18
2018-09-18T00:34:30.050Z,82.03
2018-09-18T00:35:30.523Z,82.25
2018-09-18T00:36:31.000Z,82.20
2018-09-18T00:37:31.472Z,82.65
2018-09-18T00:38:31.944Z,81.69
2018-09-18T00:39:32.419Z,80.66
2018-09-18T00:40:32.893Z,82.00
2018-09-18T00:41:33.368Z,81.80
2018-09-18T00:42:33.843Z,80.48
2018-09-18T00:43:34.317Z,81.85
2018-09-18T00:44:34.795Z,82.07
2018-09-18T00:45:35.267Z,81.45
2018-09-18T00:46:35.741Z,80.87
2018-09-18T00:47:36.216Z,80.67
2018-09-18T00:48:36.690Z,80.17
2018-09-18T00:49:37.164Z,80.09
2018-09-18T00:50:37.638Z,80.23
2018-09-18T00:51:38.117Z,80.29
2018-09-18T00:52:38.591Z,81.77
2018-09-18T00:53:39.065Z,81.64
2018-09-18T00:54:39.536Z,81.83
2018-09-18T00:55:40.013Z,80.22
2018-09-18T00:56:40.483Z,81.25
2018-09-18T00:57:40.956Z,81.50
2018-09-18T00:58:41.432Z,81.36
2018-09-18T00:59:41.905Z,80.68
2018-09-18T01:00:42.378Z,81.12
2018-09-18T01:01:42.851Z,80.73
2018-09-18T01:02:43.323Z,80.85
2018-09-18T01:03:43.797Z,81.10
2018-09-18T01:04:44.269Z,80.85
2018-09-18T01:05:44.743Z,81.07
2018-09-18T01:06:45.214Z,81.30
2018-09-18T01:07:45.691Z,81.76
2018-09-18T01:08:46.164Z,82.49
2018-09-18T01:09:46.630Z,82.30
2018-09-18T01:10:47.104Z,82.49
2018-09-18T01:11:47.576Z,81.25
2018-09-18T01:12:48.049Z,80.01
2018-09-18T01:13:48.518Z,79.95
2018-09-18T01:14:48.990Z,79.83
2018-09-18T01:15:49.463Z,79.56
2018-09-18T01:16:49.934Z,79.68
2018-09-18T01:17:50.405Z,79.78
2018-09-18T01:18:50.876Z,79.67
2018-09-18T01:19:51.348Z,79.70
2018-09-18T01:20:51.817Z,79.93
2018-09-18T01:21:52.291Z,79.55
2018-09-18T01:22:52.809Z,79.57
2018-09-18T01:23:53.228Z,79.37
2018-09-18T01:24:53.702Z,79.43
2018-09-18T01:25:54.169Z,80.06
2018-09-18T01:26:54.641Z,80.31
2018-09-18T01:27:55.113Z,80.54
2018-09-18T01:28:55.583Z,80.70
2018-09-18T01:29:56.058Z,81.04
2018-09-18T01:30:56.525Z,80.87
2018-09-18T01:31:56.996Z,80.34
2018-09-18T01:32:57.465Z,80.00
2018-09-18T01:33:57.936Z,79.81
2018-09-18T01:34:58.411Z,79.74
2018-09-18T01:35:58.877Z,79.76
2018-09-18T01:36:59.349Z,78.98
2018-09-18T01:37:59.819Z,78.73
2018-09-18T01:39:00.290Z,78.62
2018-09-18T01:40:00.765Z,78.11
2018-09-18T01:41:01.233Z,76.30
2018-09-18T01:42:01.705Z,75.02
2018-09-18T01:43:02.178Z,74.41
2018-09-18T01:44:02.652Z,73.82
2018-09-18T01:45:03.125Z,74.44
2018-09-18T01:46:03.597Z,75.08
2018-09-18T01:47:04.069Z,75.24
2018-09-18T01:48:04.542Z,75.27
2018-09-18T01:49:05.017Z,75.38
2018-09-18T01:50:05.487Z,75.66
2018-09-18T01:51:05.961Z,75.88
2018-09-18T01:52:06.434Z,75.78
2018-09-18T01:53:06.910Z,75.79
2018-09-18T01:54:07.384Z,75.29
2018-09-18T01:55:07.860Z,75.96
2018-09-18T01:56:08.331Z,74.15
2018-09-18T01:57:08.806Z,75.16
2018-09-18T01:58:09.281Z,76.30
2018-09-18T01:59:09.754Z,77.23
2018-09-18T02:00:10.229Z,78.10
2018-09-18T02:01:10.705Z,78.38
2018-09-18T02:02:11.180Z,77.37
2018-09-18T02:03:11.652Z,76.91
2018-09-18T02:04:12.133Z,73.86
2018-09-18T02:05:12.602Z,74.09
2018-09-18T02:06:13.075Z,74.95
2018-09-18T02:07:13.550Z,75.28
2018-09-18T02:08:14.026Z,75.07
2018-09-18T02:09:14.501Z,75.26
2018-09-18T02:10:14.972Z,75.89
2018-09-18T02:11:15.453Z,76.43
2018-09-18T02:12:15.920Z,76.41
2018-09-18T02:13:16.395Z,73.97
2018-09-18T02:14:16.875Z,73.26
2018-09-18T02:15:17.342Z,73.38
2018-09-18T02:16:17.813Z,74.26
2018-09-18T02:17:18.288Z,74.49
2018-09-18T02:18:18.765Z,74.97
2018-09-18T02:19:19.232Z,76.27
2018-09-18T02:20:19.705Z,74.17
2018-09-18T02:21:20.178Z,74.97
2018-09-18T02:22:20.654Z,75.11
2018-09-18T02:23:21.122Z,73.97
2018-09-18T02:24:21.598Z,75.26
2018-09-18T02:25:22.066Z,76.15
2018-09-18T02:26:22.539Z,76.67
2018-09-18T02:27:23.010Z,76.80
2018-09-18T02:28:23.482Z,78.17
2018-09-18T02:29:23.954Z,79.16
2018-09-18T02:30:24.424Z,79.45
2018-09-18T02:31:24.897Z,80.37
2018-09-18T02:32:25.366Z,80.99
2018-09-18T02:33:25.837Z,81.50
2018-09-18T02:34:26.311Z,82.03
2018-09-18T02:35:26.780Z,82.61
2018-09-18T02:36:27.252Z,82.37
2018-09-18T02:37:27.722Z,82.05
2018-09-18T02:38:28.242Z,82.22
2018-09-18T02:39:28.661Z,81.37
2018-09-18T02:40:29.135Z,80.44
2018-09-18T02:41:29.602Z,81.14
2018-09-18T02:42:30.073Z,80.66
2018-09-18T02:43:30.544Z,81.49
2018-09-18T02:44:31.015Z,80.46
2018-09-18T02:45:31.486Z,80.95
2018-09-18T02:46:31.955Z,80.35
2018-09-18T02:47:32.425Z,81.18
2018-09-18T02:48:32.957Z,82.35
2018-09-18T02:49:33.369Z,81.55
2018-09-18T02:50:33.853Z,83.06
2018-09-18T02:51:34.310Z,83.35
2018-09-18T02:52:34.782Z,82.91
2018-09-18T02:53:35.253Z,82.99
2018-09-18T02:54:35.725Z,82.78
2018-09-18T02:55:36.197Z,82.16
2018-09-18T02:56:36.668Z,83.00
2018-09-18T02:57:37.142Z,83.29
2018-09-18T02:58:37.613Z,83.70
2018-09-18T02:59:38.086Z,83.94
2018-09-18T03:00:38.558Z,82.34
2018-09-18T03:01:39.044Z,82.39
2018-09-18T03:02:39.526Z,82.01
2018-09-18T03:03:40.001Z,82.29
2018-09-18T03:04:40.485Z,82.09
2018-09-18T03:05:40.926Z,82.07
2018-09-18T03:06:41.401Z,83.02
2018-09-18T03:07:41.873Z,83.92
2018-09-18T03:08:42.351Z,82.35
2018-09-18T03:09:42.823Z,82.97
2018-09-18T03:10:43.295Z,84.32
2018-09-18T03:11:43.773Z,84.65
2018-09-18T03:12:44.245Z,84.91
2018-09-18T03:13:44.719Z,84.84
2018-09-18T03:14:45.192Z,85.32
2018-09-18T03:15:45.668Z,84.66
2018-09-18T03:16:46.141Z,82.67
2018-09-18T03:17:46.617Z,83.67
2018-09-18T03:18:47.091Z,84.08
2018-09-18T03:19:47.565Z,84.82
2018-09-18T03:20:48.057Z,84.93
2018-09-18T03:21:48.513Z,85.36
2018-09-18T03:22:48.984Z,85.43
2018-09-18T03:23:49.461Z,85.75
2018-09-18T03:24:49.934Z,85.34
2018-09-18T03:25:50.409Z,85.35
2018-09-18T03:26:50.880Z,85.45
2018-09-18T03:27:51.355Z,85.67
2018-09-18T03:28:51.827Z,85.62
2018-09-18T03:29:52.299Z,85.97
2018-09-18T03:30:52.771Z,85.87
2018-09-18T03:31:53.248Z,85.63
2018-09-18T03:32:53.718Z,84.54
2018-09-18T03:33:54.190Z,84.61
2018-09-18T03:34:54.672Z,85.02
2018-09-18T03:35:55.132Z,85.55
2018-09-18T03:36:55.606Z,85.77
2018-09-18T03:37:56.077Z,85.43
2018-09-18T03:38:56.549Z,85.51
2018-09-18T03:39:57.021Z,85.90
2018-09-18T03:40:57.491Z,86.38
2018-09-18T03:41:57.965Z,86.71
2018-09-18T03:42:58.437Z,86.90
2018-09-18T03:43:58.905Z,87.20
2018-09-18T03:44:59.376Z,87.03
2018-09-18T03:45:59.848Z,86.89
2018-09-18T03:47:00.316Z,86.79
2018-09-18T03:48:00.788Z,86.77
2018-09-18T03:49:01.259Z,86.89
2018-09-18T03:50:01.731Z,86.81
2018-09-18T03:51:02.201Z,85.83
2018-09-18T03:52:02.671Z,86.77
2018-09-18T03:53:03.139Z,87.24
2018-09-18T03:54:03.613Z,86.61
2018-09-18T03:55:04.086Z,86.76
2018-09-18T03:56:04.554Z,86.95
2018-09-18T03:57:05.022Z,87.10
2018-09-18T03:58:05.494Z,87.42
2018-09-18T03:59:05.964Z,87.65
2018-09-18T04:00:06.439Z,87.74
2018-09-18T04:01:06.905Z,87.72
2018-09-18T04:02:07.376Z,87.01
2018-09-18T04:03:07.848Z,86.55
2018-09-18T04:04:08.317Z,85.88
2018-09-18T04:05:08.790Z,86.16
2018-09-18T04:06:09.261Z,86.34
2018-09-18T04:07:09.734Z,86.40
2018-09-18T04:08:10.206Z,86.41
2018-09-18T04:09:10.677Z,86.94
2018-09-18T04:10:11.149Z,87.21
2018-09-18T04:11:11.621Z,87.37
2018-09-18T04:12:12.094Z,87.27
2018-09-18T04:13:12.566Z,87.15
2018-09-18T04:14:13.040Z,87.28
2018-09-18T04:15:13.512Z,87.27
2018-09-18T04:16:13.988Z,86.52
2018-09-18T04:17:14.464Z,86.44
2018-09-18T04:18:14.937Z,86.66
2018-09-18T04:19:15.408Z,86.35
2018-09-18T04:20:15.881Z,86.58
2018-09-18T04:21:16.357Z,86.39
2018-09-18T04:22:16.830Z,85.73
2018-09-18T04:23:17.305Z,85.62
2018-09-18T04:24:17.778Z,86.33
2018-09-18T04:25:18.253Z,85.82
2018-09-18T04:26:18.727Z,86.19
2018-09-18T04:27:19.201Z,85.83
2018-09-18T04:28:19.675Z,85.62
2018-09-18T04:29:20.149Z,85.39
2018-09-18T04:30:20.626Z,85.46
2018-09-18T04:31:21.098Z,85.07
2018-09-18T04:32:21.571Z,84.18
2018-09-18T04:33:22.045Z,83.98
2018-09-18T04:34:22.519Z,83.51
2018-09-18T04:35:22.991Z,84.36
2018-09-18T04:36:23.465Z,84.62
2018-09-18T04:37:23.940Z,84.45
2018-09-18T04:38:24.413Z,85.00
2018-09-18T04:39:24.888Z,85.01
2018-09-18T04:40:25.358Z,85.12
2018-09-18T04:41:25.834Z,85.17
2018-09-18T04:42:26.303Z,85.16
2018-09-18T04:43:26.775Z,85.16
2018-09-18T04:44:27.452Z,85.43
2018-09-18T04:45:27.722Z,85.78
2018-09-18T04:46:28.194Z,85.91
2018-09-18T04:47:28.666Z,85.69
2018-09-18T04:48:29.139Z,85.49
2018-09-18T04:49:29.608Z,85.31
2018-09-18T04:50:30.081Z,85.34
2018-09-18T04:51:30.550Z,85.34
2018-09-18T04:52:31.028Z,85.05
2018-09-18T04:53:31.492Z,84.77
2018-09-18T04:54:31.965Z,84.70
2018-09-18T04:55:32.435Z,84.83
2018-09-18T04:56:32.906Z,84.92
2018-09-18T04:57:33.377Z,85.36
2018-09-18T04:58:33.849Z,85.79
2018-09-18T04:59:34.317Z,86.12
2018-09-18T05:00:34.789Z,85.64
2018-09-18T05:01:35.261Z,85.54
2018-09-18T05:02:35.728Z,85.33
2018-09-18T05:03:36.200Z,85.29
2018-09-18T05:04:36.669Z,85.11
2018-09-18T05:05:37.140Z,85.25
2018-09-18T05:06:37.611Z,85.29
2018-09-18T05:07:38.081Z,85.29
2018-09-18T05:08:38.561Z,85.02
2018-09-18T05:09:39.021Z,85.01
2018-09-18T05:10:39.493Z,84.77
2018-09-18T05:11:39.962Z,84.69
2018-09-18T05:12:40.435Z,85.11
2018-09-18T05:13:40.905Z,85.44
2018-09-18T05:14:41.376Z,85.16
2018-09-18T05:15:41.848Z,85.27
2018-09-18T05:16:42.319Z,85.64
2018-09-18T05:17:42.789Z,85.55
2018-09-18T05:18:43.263Z,85.35
2018-09-18T05:19:43.734Z,85.34
2018-09-18T05:20:44.207Z,85.87
2018-09-18T05:21:44.678Z,85.99
2018-09-18T05:22:45.151Z,85.98
2018-09-18T05:23:45.625Z,86.08
2018-09-18T05:24:46.095Z,86.16
2018-09-18T05:25:46.567Z,86.30
2018-09-18T05:26:47.041Z,86.39
2018-09-18T05:27:47.516Z,86.57
2018-09-18T05:28:47.990Z,86.65
2018-09-18T05:29:48.463Z,86.78
2018-09-18T05:30:48.935Z,86.58
2018-09-18T05:31:49.409Z,86.49
2018-09-18T05:32:49.882Z,86.49
2018-09-18T05:33:50.504Z,86.43
2018-09-18T05:34:50.831Z,86.32
2018-09-18T05:35:51.303Z,86.26
2018-09-18T05:36:51.779Z,86.20
2018-09-18T05:37:52.254Z,86.58
2018-09-18T05:38:52.728Z,86.62
2018-09-18T05:39:53.203Z,86.77
2018-09-18T05:40:53.677Z,86.57
2018-09-18T05:41:54.204Z,86.66
2018-09-18T05:42:54.625Z,86.70
2018-09-18T05:43:55.100Z,86.90
2018-09-18T05:44:55.574Z,86.83
2018-09-18T05:45:56.048Z,87.04
2018-09-18T05:46:56.520Z,87.61
2018-09-18T05:47:57.045Z,87.72
2018-09-18T05:48:57.468Z,87.57
2018-09-18T05:49:57.942Z,87.66
2018-09-18T05:50:58.415Z,87.70
2018-09-18T05:51:58.889Z,87.70
2018-09-18T05:52:59.360Z,87.79
2018-09-18T05:53:59.835Z,87.65
2018-09-18T05:55:00.306Z,87.70
2018-09-18T05:56:00.778Z,87.57
2018-09-18T05:57:01.249Z,87.68
2018-09-18T05:58:01.721Z,87.65
2018-09-18T06:00:02.669Z,87.77
2018-09-18T06:01:03.138Z,87.74
2018-09-18T06:02:03.629Z,87.76
2018-09-18T06:03:04.083Z,87.86
2018-09-18T06:04:04.554Z,87.83
2018-09-18T06:05:05.024Z,87.82
2018-09-18T06:06:05.497Z,87.75
2018-09-18T06:07:05.969Z,87.84
2018-09-18T06:08:06.437Z,87.93
2018-09-18T06:09:06.907Z,88.28
2018-09-18T06:10:07.383Z,88.36
2018-09-18T06:11:07.852Z,88.05
2018-09-18T06:12:08.321Z,88.05
2018-09-18T06:13:08.791Z,88.09
2018-09-18T06:14:09.261Z,88.49
2018-09-18T06:15:09.784Z,88.87
2018-09-18T06:16:10.202Z,89.25
2018-09-18T06:17:10.674Z,89.54
2018-09-18T06:18:11.147Z,89.28
2018-09-18T06:19:11.634Z,89.46
2018-09-18T06:20:12.085Z,89.29
2018-09-18T06:21:12.556Z,89.50
2018-09-18T06:22:13.026Z,89.79
2018-09-18T06:23:13.498Z,89.58
2018-09-18T06:24:13.968Z,89.51
2018-09-18T06:25:14.440Z,89.22
2018-09-18T06:26:14.948Z,89.18
2018-09-18T06:27:15.384Z,89.01
2018-09-18T06:28:15.861Z,88.99
2018-09-18T06:29:16.326Z,88.96
2018-09-18T06:30:16.800Z,89.05
2018-09-18T06:31:17.271Z,88.80
2018-09-18T06:32:17.745Z,88.87
2018-09-18T06:33:18.216Z,88.81
2018-09-18T06:34:18.688Z,88.85
2018-09-18T06:35:19.166Z,88.85
2018-09-18T06:36:19.634Z,88.86
2018-09-18T06:37:20.115Z,88.77
2018-09-18T06:38:20.581Z,88.64
2018-09-18T06:39:21.057Z,88.77
2018-09-18T06:40:21.529Z,88.81
2018-09-18T06:41:22.004Z,88.51
2018-09-18T06:42:22.553Z,88.46
2018-09-18T06:43:22.956Z,88.51
2018-09-18T06:44:23.429Z,88.35
2018-09-18T06:45:23.901Z,88.49
2018-09-18T06:46:24.377Z,88.19
2018-09-18T06:47:24.850Z,88.04
2018-09-18T06:48:25.326Z,88.32
2018-09-18T06:49:25.801Z,88.20
2018-09-18T06:50:26.276Z,88.44
2018-09-18T06:51:26.751Z,88.99
2018-09-18T06:52:27.224Z,88.84
2018-09-18T06:53:27.697Z,88.92
2018-09-18T06:54:28.209Z,88.75
2018-09-18T06:55:28.648Z,88.81
2018-09-18T06:56:29.120Z,88.68
2018-09-18T06:57:29.595Z,88.62
2018-09-18T06:58:30.073Z,88.59
2018-09-18T06:59:30.543Z,88.37
2018-09-18T07:00:31.017Z,88.37
2018-09-18T07:01:31.490Z,88.48
2018-09-18T07:02:31.965Z,88.60
2018-09-18T07:03:32.438Z,88.14
2018-09-18T07:04:32.910Z,88.23
2018-09-18T07:05:33.405Z,88.22
2018-09-18T07:06:33.857Z,88.05
2018-09-18T07:07:34.336Z,88.54
2018-09-18T07:08:34.804Z,88.00
2018-09-18T07:09:35.276Z,88.31
2018-09-18T07:10:35.750Z,88.70
2018-09-18T07:11:36.222Z,88.37
2018-09-18T07:12:36.694Z,88.29
2018-09-18T07:13:37.169Z,88.54
2018-09-18T07:14:37.642Z,88.74
2018-09-18T07:15:38.163Z,88.83
2018-09-18T07:16:38.587Z,88.83
2018-09-18T07:17:39.057Z,88.53
2018-09-18T07:18:39.530Z,88.90
2018-09-18T07:19:40.000Z,88.46
2018-09-18T07:20:40.471Z,88.55
2018-09-18T07:21:40.944Z,88.50
2018-09-18T07:22:41.418Z,89.46
2018-09-18T07:23:41.886Z,88.65
2018-09-18T07:24:42.408Z,88.50
2018-09-18T07:25:42.829Z,88.68
2018-09-18T07:26:43.302Z,88.71
2018-09-18T07:27:43.775Z,88.82
2018-09-18T07:28:44.243Z,88.76
2018-09-18T07:29:44.718Z,89.00
2018-09-18T07:30:45.186Z,89.02
2018-09-18T07:31:45.658Z,88.99
2018-09-18T07:32:46.129Z,89.16
2018-09-18T07:33:46.618Z,89.02
2018-09-18T07:34:47.070Z,89.01
2018-09-18T07:35:47.540Z,89.02
2018-09-18T07:36:48.011Z,89.46
2018-09-18T07:37:48.485Z,89.59
2018-09-18T07:38:48.954Z,89.84
2018-09-18T07:39:49.427Z,90.30
2018-09-18T07:40:49.901Z,90.11
2018-09-18T07:41:50.370Z,90.03
2018-09-18T07:42:50.842Z,89.77
2018-09-18T07:43:51.315Z,89.88
2018-09-18T07:44:51.784Z,90.01
2018-09-18T07:45:52.259Z,89.97
2018-09-18T07:46:52.730Z,90.12
2018-09-18T07:47:53.207Z,90.35
2018-09-18T07:48:53.677Z,90.14
2018-09-18T07:49:54.149Z,90.06
2018-09-18T07:50:54.625Z,90.13
2018-09-18T07:51:55.101Z,90.43
2018-09-18T07:52:55.571Z,90.55
2018-09-18T07:53:56.046Z,90.58
2018-09-18T07:54:56.519Z,90.75
2018-09-18T07:55:56.994Z,90.94
2018-09-18T07:56:57.469Z,91.05
2018-09-18T07:57:57.945Z,91.28
2018-09-18T07:58:58.425Z,91.42
2018-09-18T07:59:58.897Z,91.17
2018-09-18T08:00:59.370Z,91.13
2018-09-18T08:01:59.847Z,91.53
2018-09-18T08:03:00.348Z,91.46
2018-09-18T08:04:00.804Z,91.07
2018-09-18T08:05:01.274Z,91.06
2018-09-18T08:06:01.750Z,90.64
2018-09-18T08:07:02.227Z,90.47
2018-09-18T08:08:02.701Z,90.37
2018-09-18T08:09:03.177Z,90.27
2018-09-18T08:10:03.657Z,90.40
2018-09-18T08:11:04.131Z,90.01
2018-09-18T08:12:04.606Z,89.86
2018-09-18T08:13:05.082Z,89.71
2018-09-18T08:14:05.558Z,89.56
2018-09-18T08:15:06.034Z,88.81
2018-09-18T08:16:06.511Z,88.01
2018-09-18T08:17:06.986Z,87.93
2018-09-18T08:18:07.464Z,87.59
2018-09-18T08:19:07.949Z,87.41
2018-09-18T08:20:08.416Z,86.89
2018-09-18T08:21:08.895Z,85.45
2018-09-18T08:22:09.437Z,84.54
2018-09-18T08:23:09.847Z,82.88
2018-09-18T08:24:10.325Z,82.49
2018-09-18T08:25:10.859Z,81.14
2018-09-18T08:26:11.304Z,80.94
2018-09-18T08:27:11.773Z,81.49
2018-09-18T08:28:12.230Z,81.95
2018-09-18T08:29:12.706Z,82.29
2018-09-18T08:30:13.186Z,83.10
2018-09-18T08:31:13.658Z,83.99
2018-09-18T08:32:14.134Z,83.82
2018-09-18T08:33:14.608Z,83.51
2018-09-18T08:34:15.083Z,82.46
2018-09-18T08:35:15.559Z,80.61
2018-09-18T08:36:16.036Z,80.89
2018-09-18T08:37:16.510Z,79.62
2018-09-18T08:38:16.985Z,79.07
2018-09-18T08:39:17.481Z,79.02
2018-09-18T08:40:17.940Z,78.16
2018-09-18T08:41:18.413Z,78.39
2018-09-18T08:42:18.921Z,78.39
2018-09-18T08:43:19.384Z,76.37
2018-09-18T08:44:19.833Z,76.80
2018-09-18T08:45:20.334Z,74.74
2018-09-18T08:46:20.782Z,74.06
2018-09-18T08:47:21.258Z,73.25
2018-09-18T08:48:21.730Z,72.76
2018-09-18T08:49:22.205Z,73.58
2018-09-18T08:50:22.677Z,72.80
2018-09-18T08:51:23.151Z,71.67
2018-09-18T08:52:23.648Z,72.69
2018-09-18T08:53:24.100Z,74.12
2018-09-18T08:54:24.573Z,74.97
2018-09-18T08:55:25.073Z,73.49
2018-09-18T08:56:25.524Z,75.23
2018-09-18T08:57:25.994Z,75.72
2018-09-18T08:58:26.476Z,76.34
2018-09-18T08:59:26.940Z,75.82
2018-09-18T09:00:27.413Z,75.71
2018-09-18T09:01:27.917Z,77.05
2018-09-18T09:02:28.376Z,76.78
2018-09-18T09:03:28.854Z,76.10
2018-09-18T09:04:29.352Z,76.33
2018-09-18T09:05:29.797Z,75.99
2018-09-18T09:06:30.330Z,75.34
2018-09-18T09:07:30.806Z,75.98
2018-09-18T09:08:31.204Z,76.78
2018-09-18T09:09:31.704Z,77.39
2018-09-18T09:10:32.198Z,78.61
2018-09-18T09:11:32.621Z,78.87
2018-09-18T09:12:33.093Z,78.27
2018-09-18T09:13:33.585Z,78.73
2018-09-18T09:14:34.104Z,78.73
2018-09-18T09:15:34.508Z,78.69
2018-09-18T09:16:34.977Z,79.96
2018-09-18T09:17:35.449Z,80.07
2018-09-18T09:18:35.999Z,79.42
2018-09-18T09:19:36.423Z,78.70
2018-09-18T09:20:36.879Z,77.71
2018-09-18T09:21:37.339Z,77.25
2018-09-18T09:22:37.858Z,77.42
2018-09-18T09:23:38.310Z,76.93
2018-09-18T09:24:38.792Z,78.34
2018-09-18T09:25:39.233Z,77.96
2018-09-18T09:26:39.743Z,78.15
2018-09-18T09:27:40.201Z,77.35
2018-09-18T09:28:40.666Z,76.39
2018-09-18T09:29:41.121Z,75.45
2018-09-18T09:30:41.612Z,76.87
2018-09-18T09:31:42.085Z,77.88
2018-09-18T09:32:42.529Z,77.59
2018-09-18T09:33:42.998Z,77.63
2018-09-18T09:34:43.491Z,78.55
2018-09-18T09:35:43.971Z,78.68
2018-09-18T09:36:44.437Z,78.36
2018-09-18T09:37:44.901Z,78.46
2018-09-18T09:38:45.376Z,78.51
2018-09-18T09:39:45.828Z,76.48
2018-09-18T09:40:46.299Z,76.92
2018-09-18T09:41:46.776Z,78.18
2018-09-18T09:42:47.244Z,78.94
2018-09-18T09:43:47.732Z,79.66
2018-09-18T09:44:48.258Z,82.45
2018-09-18T09:45:48.658Z,82.10
2018-09-18T09:46:49.128Z,82.41
2018-09-18T09:47:49.603Z,82.25
2018-09-18T09:48:50.070Z,81.47
2018-09-18T09:49:50.542Z,81.04
2018-09-18T09:50:51.013Z,81.03
2018-09-18T09:51:51.485Z,80.69
2018-09-18T09:52:51.955Z,81.07
2018-09-18T09:53:52.428Z,81.82
2018-09-18T09:54:52.896Z,82.13
2018-09-18T09:55:53.370Z,81.76
2018-09-18T09:56:53.858Z,82.27
2018-09-18T09:57:54.311Z,82.29
2018-09-18T09:58:54.785Z,82.93
2018-09-18T09:59:55.254Z,83.33
2018-09-18T10:01:56.196Z,81.62
2018-09-18T10:02:56.712Z,80.91
2018-09-18T10:03:57.139Z,79.48
2018-09-18T10:04:57.611Z,77.90
2018-09-18T10:05:58.081Z,77.97
2018-09-18T10:06:58.603Z,78.85
2018-09-18T10:07:59.027Z,79.60
2018-09-18T10:08:59.497Z,79.12
2018-09-18T10:09:59.968Z,79.01
2018-09-18T10:11:00.520Z,80.15
2018-09-18T10:12:00.914Z,79.26
2018-09-18T10:13:01.387Z,79.29
2018-09-18T10:14:01.859Z,78.90
2018-09-18T10:15:02.333Z,78.27
2018-09-18T10:16:02.807Z,75.86
2018-09-18T10:17:03.282Z,76.17
2018-09-18T10:18:03.797Z,75.92
2018-09-18T10:19:04.230Z,76.51
2018-09-18T10:20:04.703Z,76.23
2018-09-18T10:21:05.180Z,75.50
2018-09-18T10:22:05.653Z,76.24
2018-09-18T10:23:06.135Z,77.99
2018-09-18T10:24:06.605Z,76.65
2018-09-18T10:25:07.137Z,75.90
2018-09-18T10:26:07.634Z,75.83
2018-09-18T10:27:08.114Z,75.43
2018-09-18T10:28:08.521Z,76.33
2018-09-18T10:29:08.996Z,75.38
2018-09-18T10:30:09.457Z,74.57
2018-09-18T10:31:09.933Z,74.80
2018-09-18T10:32:10.410Z,74.87
2018-09-18T10:33:10.891Z,75.16
2018-09-18T10:34:11.384Z,76.72
2018-09-18T10:35:11.844Z,75.88
2018-09-18T10:36:12.333Z,75.57
2018-09-18T10:37:12.810Z,75.47
2018-09-18T10:38:13.288Z,75.24
2018-09-18T10:39:13.742Z,75.18
2018-09-18T10:40:14.214Z,74.37
2018-09-18T10:41:14.803Z,74.01
2018-09-18T10:42:15.260Z,75.62
2018-09-18T10:43:15.650Z,73.63
2018-09-18T10:44:16.117Z,73.81
2018-09-18T10:45:16.606Z,73.97
2018-09-18T10:46:17.082Z,71.24
2018-09-18T10:47:17.543Z,71.23
2018-09-18T10:48:18.039Z,69.79
2018-09-18T10:49:18.499Z,70.27
2018-09-18T10:50:18.969Z,70.48
2018-09-18T10:51:19.446Z,71.03
2018-09-18T10:52:19.941Z,71.55
2018-09-18T10:53:20.395Z,71.46
2018-09-18T10:54:20.871Z,71.28
2018-09-18T10:55:21.355Z,71.21
2018-09-18T10:56:21.822Z,71.84
2018-09-18T10:57:22.297Z,71.78
2018-09-18T10:58:22.773Z,72.15
2018-09-18T10:59:23.249Z,72.41
2018-09-18T11:00:23.724Z,73.05
2018-09-18T11:01:24.194Z,71.25
2018-09-18T11:02:24.673Z,70.78
2018-09-18T11:03:25.144Z,70.26
2018-09-18T11:04:25.634Z,71.53
2018-09-18T11:05:26.122Z,71.05
2018-09-18T11:06:26.568Z,72.39
2018-09-18T11:07:27.102Z,72.32
2018-09-18T11:08:27.593Z,72.91
2018-09-18T11:09:28.039Z,70.60
2018-09-18T11:10:28.535Z,70.92
2018-09-18T11:11:28.936Z,70.12
2018-09-18T11:12:29.411Z,71.53
2018-09-18T11:13:29.949Z,68.17
2018-09-18T11:14:30.381Z,68.92
2018-09-18T11:15:30.918Z,72.17
2018-09-18T11:16:31.354Z,71.41
2018-09-18T11:17:31.781Z,70.15
2018-09-18T11:18:32.263Z,70.97
2018-09-18T11:19:32.759Z,68.52
2018-09-18T11:20:33.205Z,69.91
2018-09-18T11:21:33.799Z,68.98
2018-09-18T11:22:34.168Z,71.59
2018-09-18T11:23:34.639Z,71.13
2018-09-18T11:24:35.147Z,71.59
2018-09-18T11:25:35.631Z,69.83
2018-09-18T11:26:36.043Z,68.66
2018-09-18T11:27:36.525Z,70.05
2018-09-18T11:28:36.996Z,73.26
2018-09-18T11:29:37.493Z,73.14
2018-09-18T11:30:37.964Z,70.89
2018-09-18T11:31:38.414Z,74.59
2018-09-18T11:32:38.972Z,74.74
2018-09-18T11:33:39.360Z,75.89
2018-09-18T11:34:39.835Z,76.15
2018-09-18T11:35:40.306Z,73.61
2018-09-18T11:36:40.782Z,72.59
2018-09-18T11:37:41.254Z,73.22
2018-09-18T11:38:41.728Z,73.98
2018-09-18T11:39:42.200Z,67.72
2018-09-18T11:40:42.674Z,65.27
2018-09-18T11:41:43.147Z,68.52
2018-09-18T11:42:43.618Z,67.85
2018-09-18T11:43:44.092Z,68.23
2018-09-18T11:44:44.567Z,73.67
2018-09-18T11:45:45.103Z,75.44
2018-09-18T11:46:45.565Z,74.04
2018-09-18T11:47:46.038Z,70.46
2018-09-18T11:48:46.464Z,68.15
2018-09-18T11:49:46.931Z,70.80
2018-09-18T11:50:47.403Z,67.91
2018-09-18T11:51:47.878Z,70.68
2018-09-18T11:52:48.410Z,72.65
2018-09-18T11:53:48.824Z,72.81
2018-09-18T11:54:49.297Z,70.99
2018-09-18T11:55:49.770Z,72.82
2018-09-18T11:56:50.291Z,72.13
2018-09-18T11:57:51.070Z,75.24
2018-09-18T11:58:51.188Z,72.75
2018-09-18T11:59:51.661Z,72.87
2018-09-18T12:00:52.136Z,73.49
2018-09-18T12:01:52.609Z,78.50
2018-09-18T12:02:53.090Z,79.02
2018-09-18T12:03:53.553Z,79.16
2018-09-18T12:04:54.080Z,78.64
2018-09-18T12:05:54.502Z,77.36
2018-09-18T12:06:54.973Z,77.18
2018-09-18T12:07:55.446Z,77.44
2018-09-18T12:08:55.929Z,76.44
2018-09-18T12:09:56.392Z,76.64
2018-09-18T12:10:56.864Z,77.39
2018-09-18T12:11:57.339Z,79.16
2018-09-18T12:12:57.814Z,79.59
2018-09-18T12:13:58.287Z,80.84
2018-09-18T12:14:58.758Z,84.62
2018-09-18T12:15:59.230Z,84.20
2018-09-18T12:18:00.176Z,86.44
2018-09-18T12:19:00.649Z,84.64
2018-09-18T12:20:01.122Z,83.97
2018-09-18T12:21:01.594Z,84.86
2018-09-18T12:22:02.066Z,82.59
2018-09-18T12:23:02.544Z,84.01
2018-09-18T12:24:03.015Z,83.18
2018-09-18T12:25:03.487Z,84.92
2018-09-18T12:26:03.959Z,85.98
2018-09-18T12:27:04.429Z,86.29
2018-09-18T12:28:04.905Z,86.11
2018-09-18T12:29:05.377Z,85.71
2018-09-18T12:30:05.849Z,85.70
2018-09-18T12:31:06.321Z,86.37
2018-09-18T12:32:06.794Z,86.76
2018-09-18T12:33:07.267Z,86.51
2018-09-18T12:34:07.739Z,87.59
2018-09-18T12:35:08.238Z,87.51
2018-09-18T12:36:08.688Z,87.35
2018-09-18T12:37:09.158Z,87.38
2018-09-18T12:38:09.632Z,87.12
2018-09-18T12:39:10.104Z,87.99
2018-09-18T12:40:10.576Z,88.57
2018-09-18T12:41:11.085Z,89.12
2018-09-18T12:42:11.614Z,88.57
2018-09-18T12:43:11.993Z,87.85
2018-09-18T12:44:12.467Z,87.61
2018-09-18T12:45:12.940Z,89.09
2018-09-18T12:46:13.412Z,89.35
2018-09-18T12:47:13.884Z,89.18
2018-09-18T12:48:14.358Z,88.42
2018-09-18T12:49:14.904Z,87.79
2018-09-18T12:50:15.588Z,89.27
2018-09-18T12:51:15.778Z,88.62
2018-09-18T12:52:16.249Z,88.84
2018-09-18T12:53:16.722Z,88.89
2018-09-18T12:54:17.284Z,89.68
2018-09-18T12:55:17.665Z,90.81
2018-09-18T12:56:18.140Z,91.95
2018-09-18T12:57:18.696Z,92.35
2018-09-18T12:58:19.088Z,92.30
2018-09-18T12:59:19.600Z,92.59
2018-09-18T13:00:20.080Z,92.59
2018-09-18T13:01:20.504Z,92.70